createdAt,value
2018-12-14T00:00:15.137Z,10.13
2018-12-14T00:02:42.662Z,10.33
2018-12-14T00:05:10.295Z,11.27
2018-12-14T00:07:40.640Z,10.33
2018-12-14T00:10:08.304Z,10.20
2018-12-14T00:12:35.823Z,9.40
2018-12-14T00:15:04.413Z,9.88
2018-12-14T00:17:32.138Z,9.03
2018-12-14T00:19:59.588Z,9.90
2018-12-14T00:22:27.098Z,9.40
2018-12-14T00:24:55.379Z,9.53
2018-12-14T00:27:23.007Z,9.80
2018-12-14T00:29:50.618Z,8.40
2018-12-14T00:32:18.267Z,9.03
2018-12-14T00:34:45.751Z,8.35
2018-12-14T00:37:14.007Z,8.00
2018-12-14T00:39:41.463Z,8.00
2018-12-14T00:42:09.001Z,8.17
2018-12-14T00:44:36.441Z,9.70
2018-12-14T00:47:03.991Z,9.47
2018-12-14T00:49:32.237Z,9.13
2018-12-14T00:51:59.774Z,8.50
2018-12-14T00:54:27.214Z,9.53
2018-12-14T00:56:54.729Z,8.60
2018-12-14T00:59:22.229Z,9.50
2018-12-14T01:01:49.775Z,10.20
2018-12-14T01:04:17.280Z,10.80
2018-12-14T01:06:44.736Z,10.17
2018-12-14T01:09:12.288Z,8.37
2018-12-14T01:11:39.834Z,7.70
2018-12-14T01:14:07.270Z,9.50
2018-12-14T01:16:34.753Z,10.13
2018-12-14T01:19:02.315Z,8.47
2018-12-14T01:21:29.874Z,9.83
2018-12-14T01:23:57.582Z,9.30
2018-12-14T01:26:25.097Z,8.63
2018-12-14T01:28:52.552Z,9.17
2018-12-14T01:31:20.060Z,8.87
2018-12-14T01:33:47.597Z,8.87
2018-12-14T01:36:15.184Z,10.80
2018-12-14T01:38:43.699Z,7.92
2018-12-14T01:41:11.361Z,8.47
2018-12-14T01:43:38.854Z,6.70
2018-12-14T01:46:06.291Z,9.40
2018-12-14T01:48:33.750Z,8.40
2018-12-14T01:51:02.800Z,9.36
2018-12-14T01:53:30.632Z,8.90
2018-12-14T01:55:58.752Z,8.87
2018-12-14T01:58:26.203Z,8.43
2018-12-14T02:00:53.721Z,8.97
2018-12-14T02:03:21.214Z,8.13
2018-12-14T02:05:49.851Z,8.03
2018-12-14T02:08:17.278Z,10.10
2018-12-14T02:10:44.766Z,9.13
2018-12-14T02:13:12.215Z,9.60
2018-12-14T02:15:40.539Z,9.97
2018-12-14T02:18:08.105Z,9.53
2018-12-14T02:20:35.564Z,8.50
2018-12-14T02:23:03.523Z,8.40
2018-12-14T02:25:31.094Z,9.83
2018-12-14T02:27:58.756Z,7.70
2018-12-14T02:30:44.657Z,9.77
2018-12-14T02:33:12.106Z,9.03
2018-12-14T02:35:39.568Z,9.27
2018-12-14T02:38:07.145Z,9.68
2018-12-14T02:40:34.598Z,9.63
2018-12-14T02:43:02.058Z,8.53
2018-12-14T02:45:29.602Z,8.43
2018-12-14T02:47:57.797Z,10.03
2018-12-14T02:50:25.389Z,9.33
2018-12-14T02:52:52.893Z,11.07
2018-12-14T02:55:20.473Z,9.40
2018-12-14T02:57:47.917Z,9.03
2018-12-14T03:00:15.591Z,8.47
2018-12-14T03:02:43.111Z,10.60
2018-12-14T03:05:10.578Z,8.77
2018-12-14T03:07:38.121Z,8.93
2018-12-14T03:10:06.037Z,9.03
2018-12-14T03:12:33.536Z,8.27
2018-12-14T03:15:01.128Z,8.97
2018-12-14T03:17:29.053Z,9.57
2018-12-14T03:19:56.927Z,9.73
2018-12-14T03:22:25.074Z,9.60
2018-12-14T03:24:52.612Z,9.70
2018-12-14T03:27:20.093Z,9.10
2018-12-14T03:29:47.604Z,9.93
2018-12-14T03:32:15.056Z,9.10
2018-12-14T03:34:42.516Z,7.93
2018-12-14T03:37:10.055Z,8.80
2018-12-14T03:39:37.499Z,8.00
2018-12-14T03:42:05.029Z,7.97
2018-12-14T03:44:32.504Z,7.80
2018-12-14T03:46:59.977Z,7.53
2018-12-14T03:49:27.441Z,6.27
2018-12-14T03:51:54.883Z,4.40
2018-12-14T03:54:22.374Z,6.83
2018-12-14T03:56:49.810Z,5.50
2018-12-14T03:59:17.281Z,6.50
2018-12-14T04:01:44.864Z,5.87
2018-12-14T04:04:13.166Z,7.00
2018-12-14T04:06:40.614Z,6.53
2018-12-14T04:09:08.076Z,5.17
2018-12-14T04:11:35.562Z,6.80
2018-12-14T04:14:03.142Z,7.90
2018-12-14T04:16:30.672Z,5.73
2018-12-14T04:18:59.937Z,7.20
2018-12-14T04:21:27.418Z,6.73
2018-12-14T04:23:54.909Z,6.07
2018-12-14T04:26:22.412Z,6.23
2018-12-14T04:28:50.636Z,7.03
2018-12-14T04:31:18.108Z,6.67
2018-12-14T04:33:45.618Z,6.37
2018-12-14T04:36:13.073Z,6.50
2018-12-14T04:38:40.594Z,6.87
2018-12-14T04:41:08.049Z,6.72
2018-12-14T04:43:35.524Z,7.27
2018-12-14T04:46:02.989Z,7.17
2018-12-14T04:48:30.450Z,6.93
2018-12-14T04:50:57.913Z,7.00
2018-12-14T04:53:26.297Z,6.07
2018-12-14T04:55:53.791Z,6.40
2018-12-14T04:58:21.232Z,5.90
2018-12-14T05:00:48.688Z,5.17
2018-12-14T05:03:16.260Z,7.43
2018-12-14T05:05:43.707Z,7.05
2018-12-14T05:08:11.171Z,6.17
2018-12-14T05:10:38.795Z,8.03
2018-12-14T05:13:06.250Z,6.37
2018-12-14T05:15:34.328Z,7.27
2018-12-14T05:18:02.008Z,6.33
2018-12-14T05:20:29.624Z,6.93
2018-12-14T05:22:57.248Z,7.13
2018-12-14T05:25:24.677Z,7.33
2018-12-14T05:27:52.130Z,6.87
2018-12-14T05:30:19.749Z,7.17
2018-12-14T05:32:47.209Z,7.60
2018-12-14T05:35:14.678Z,8.50
2018-12-14T05:37:42.109Z,7.08
2018-12-14T05:40:09.629Z,7.07
2018-12-14T05:42:37.138Z,6.97
2018-12-14T05:45:05.134Z,7.60
2018-12-14T05:47:32.578Z,7.40
2018-12-14T05:50:00.146Z,7.77
2018-12-14T05:52:27.625Z,8.10
2018-12-14T05:54:55.063Z,7.47
2018-12-14T05:57:22.584Z,7.40
2018-12-14T05:59:50.262Z,7.43
2018-12-14T06:02:17.728Z,5.17
2018-12-14T06:04:45.212Z,6.77
2018-12-14T06:07:12.669Z,6.77
2018-12-14T06:09:40.109Z,9.00
2018-12-14T06:12:07.964Z,7.30
2018-12-14T06:14:35.400Z,7.20
2018-12-14T06:17:02.885Z,7.30
2018-12-14T06:19:30.358Z,7.37
2018-12-14T06:21:57.815Z,6.03
2018-12-14T06:24:25.309Z,8.00
2018-12-14T06:26:52.829Z,7.97
2018-12-14T06:29:20.308Z,7.70
2018-12-14T06:31:47.768Z,7.37
2018-12-14T06:34:15.267Z,7.40
2018-12-14T06:36:42.775Z,8.00
2018-12-14T06:39:10.230Z,7.07
2018-12-14T06:41:38.011Z,7.77
2018-12-14T06:44:05.481Z,7.43
2018-12-14T06:46:33.011Z,7.97
2018-12-14T06:49:00.455Z,7.73
2018-12-14T06:51:27.937Z,7.50
2018-12-14T06:53:55.425Z,7.43
2018-12-14T06:56:22.909Z,7.00
2018-12-14T06:58:50.387Z,8.90
2018-12-14T07:01:17.914Z,7.40
2018-12-14T07:03:47.441Z,9.07
2018-12-14T07:06:14.940Z,8.00
2018-12-14T07:08:42.390Z,7.67
2018-12-14T07:11:09.856Z,8.17
2018-12-14T07:13:37.340Z,9.80
2018-12-14T07:16:04.842Z,9.70
2018-12-14T07:18:32.812Z,8.50
2018-12-14T07:21:00.345Z,8.10
2018-12-14T07:23:27.816Z,7.50
2018-12-14T07:25:55.296Z,8.07
2018-12-14T07:28:22.790Z,8.27
2018-12-14T07:30:50.254Z,6.80
2018-12-14T07:33:17.706Z,8.17
2018-12-14T07:35:45.153Z,8.67
2018-12-14T07:38:12.664Z,8.58
2018-12-14T07:40:40.100Z,7.93
2018-12-14T07:43:07.540Z,8.33
2018-12-14T07:45:35.291Z,8.57
2018-12-14T07:48:02.748Z,8.97
2018-12-14T07:50:30.276Z,8.80
2018-12-14T07:52:57.922Z,8.70
2018-12-14T07:55:25.546Z,7.90
2018-12-14T07:57:53.146Z,8.47
2018-12-14T08:00:20.608Z,9.45
2018-12-14T08:02:48.081Z,7.43
2018-12-14T08:05:15.535Z,8.33
2018-12-14T08:07:43.024Z,9.50
2018-12-14T08:10:10.474Z,7.90
2018-12-14T08:12:37.931Z,8.25
2018-12-14T08:15:11.120Z,8.87
2018-12-14T08:17:35.177Z,8.67
2018-12-14T08:20:03.777Z,10.47
2018-12-14T08:22:31.255Z,8.38
2018-12-14T08:24:58.753Z,8.00
2018-12-14T08:27:26.296Z,8.47
2018-12-14T08:29:53.765Z,7.20
2018-12-14T08:32:21.227Z,9.60
2018-12-14T08:34:51.189Z,7.90
2018-12-14T08:37:18.131Z,7.80
2018-12-14T08:39:45.652Z,7.90
2018-12-14T08:42:13.109Z,8.80
2018-12-14T08:44:40.745Z,8.78
2018-12-14T08:47:08.187Z,9.23
2018-12-14T08:49:35.704Z,9.10
2018-12-14T08:52:03.513Z,9.07
2018-12-14T08:54:30.965Z,8.90
2018-12-14T08:56:58.453Z,10.67
2018-12-14T08:59:25.897Z,7.93
2018-12-14T09:01:53.383Z,9.50
2018-12-14T09:04:20.830Z,8.73
2018-12-14T09:06:48.284Z,10.13
2018-12-14T09:09:15.856Z,8.40
2018-12-14T09:11:43.372Z,8.20
2018-12-14T09:14:10.812Z,9.00
2018-12-14T09:16:38.283Z,8.90
2018-12-14T09:19:06.382Z,9.87
2018-12-14T09:21:33.836Z,9.73
2018-12-14T09:24:01.308Z,10.63
2018-12-14T09:26:29.117Z,9.83
2018-12-14T09:28:56.958Z,9.87
2018-12-14T09:31:24.929Z,9.00
2018-12-14T09:33:52.457Z,9.07
2018-12-14T09:36:19.920Z,9.70
2018-12-14T09:38:47.544Z,10.00
2018-12-14T09:41:16.341Z,9.48
2018-12-14T09:43:44.070Z,9.93
2018-12-14T09:46:11.562Z,10.20
2018-12-14T09:48:39.022Z,8.80
2018-12-14T09:51:12.125Z,8.80
2018-12-14T09:53:36.032Z,9.43
2018-12-14T09:56:03.682Z,10.23
2018-12-14T09:58:31.250Z,8.90
2018-12-14T10:00:58.725Z,8.90
2018-12-14T10:03:26.207Z,9.87
2018-12-14T10:05:53.692Z,9.27
2018-12-14T10:08:21.164Z,9.87
2018-12-14T10:10:48.825Z,10.80
2018-12-14T10:13:16.557Z,10.00
2018-12-14T10:15:44.047Z,9.60
2018-12-14T10:18:11.462Z,9.67
2018-12-14T10:20:38.956Z,7.90
2018-12-14T10:23:06.565Z,9.33
2018-12-14T10:25:34.046Z,9.73
2018-12-14T10:28:01.507Z,10.53
2018-12-14T10:30:28.977Z,10.40
2018-12-14T10:32:56.454Z,9.53
2018-12-14T10:35:23.981Z,9.90
2018-12-14T10:37:51.457Z,10.00
2018-12-14T10:40:18.921Z,10.85
2018-12-14T10:42:46.384Z,9.80
2018-12-14T10:45:13.852Z,11.13
2018-12-14T10:47:41.314Z,9.93
2018-12-14T10:50:08.903Z,9.17
2018-12-14T10:52:36.382Z,10.33
2018-12-14T10:55:05.378Z,10.00
2018-12-14T10:57:34.004Z,10.30
2018-12-14T11:00:01.465Z,9.37
2018-12-14T11:02:28.912Z,9.60
2018-12-14T11:04:56.504Z,12.13
2018-12-14T11:07:23.959Z,9.67
2018-12-14T11:09:51.460Z,10.13
2018-12-14T11:12:18.936Z,11.70
2018-12-14T11:14:46.529Z,10.13
2018-12-14T11:17:14.098Z,11.60
2018-12-14T11:19:41.540Z,10.10
2018-12-14T11:22:09.050Z,9.63
2018-12-14T11:24:36.616Z,10.50
2018-12-14T11:27:04.104Z,10.57
2018-12-14T11:29:31.605Z,11.07
2018-12-14T11:31:59.130Z,10.90
2018-12-14T11:34:29.668Z,10.37
2018-12-14T11:36:57.012Z,10.63
2018-12-14T11:39:24.492Z,10.70
2018-12-14T11:41:51.980Z,11.13
2018-12-14T11:44:21.377Z,10.53
2018-12-14T11:46:48.960Z,10.63
2018-12-14T11:49:16.490Z,10.23
2018-12-14T11:51:43.928Z,12.70
2018-12-14T11:54:11.390Z,9.80
2018-12-14T11:56:38.890Z,11.93
2018-12-14T11:59:06.320Z,10.97
2018-12-14T12:01:33.889Z,11.63
2018-12-14T12:04:01.354Z,11.20
2018-12-14T12:06:28.892Z,12.97
2018-12-14T12:08:57.157Z,10.17
2018-12-14T12:11:24.621Z,11.50
2018-12-14T12:13:52.209Z,10.90
2018-12-14T12:16:19.990Z,11.43
2018-12-14T12:18:47.468Z,9.67
2018-12-14T12:21:14.948Z,10.40
2018-12-14T12:23:47.746Z,9.30
2018-12-14T12:26:21.675Z,9.47
2018-12-14T12:28:54.114Z,10.77
2018-12-14T12:31:21.578Z,11.30
2018-12-14T12:33:50.007Z,11.10
2018-12-14T12:36:21.763Z,11.30
2018-12-14T12:38:49.255Z,11.05
2018-12-14T12:41:17.529Z,11.90
2018-12-14T12:43:45.005Z,10.65
2018-12-14T12:46:12.460Z,11.80
2018-12-14T12:48:40.369Z,12.80
2018-12-14T12:51:07.869Z,9.70
2018-12-14T12:53:35.369Z,12.80
2018-12-14T12:56:02.845Z,10.97
2018-12-14T12:58:30.364Z,11.53
2018-12-14T13:00:57.831Z,13.17
2018-12-14T13:03:25.320Z,11.60
2018-12-14T13:05:52.924Z,12.27
2018-12-14T13:08:20.360Z,10.80
2018-12-14T13:10:47.835Z,12.23
2018-12-14T13:13:15.341Z,13.50
2018-12-14T13:15:42.802Z,11.45
2018-12-14T13:18:10.287Z,13.30
2018-12-14T13:20:37.888Z,11.50
2018-12-14T13:23:06.117Z,12.00
2018-12-14T13:25:33.604Z,12.97
2018-12-14T13:28:01.442Z,13.57
2018-12-14T13:30:28.908Z,11.87
2018-12-14T13:32:56.411Z,14.60
2018-12-14T13:35:25.025Z,13.50
2018-12-14T13:37:52.532Z,14.40
2018-12-14T13:40:20.119Z,10.37
2018-12-14T13:42:47.570Z,13.03
2018-12-14T13:45:15.133Z,13.28
2018-12-14T13:47:42.782Z,10.70
2018-12-14T13:50:10.419Z,10.83
2018-12-14T13:52:37.848Z,11.63
2018-12-14T13:55:05.424Z,11.10
2018-12-14T13:57:32.917Z,11.50
2018-12-14T14:00:00.428Z,13.00
2018-12-14T14:02:27.896Z,13.20
2018-12-14T14:04:55.408Z,9.80
2018-12-14T14:07:22.884Z,11.97
2018-12-14T14:09:50.355Z,12.20
2018-12-14T14:12:18.348Z,12.37
2018-12-14T14:14:45.838Z,13.07
2018-12-14T14:17:13.335Z,11.80
2018-12-14T14:19:42.317Z,11.40
2018-12-14T14:22:09.974Z,11.50
2018-12-14T14:24:38.436Z,11.03
2018-12-14T14:27:05.898Z,11.40
2018-12-14T14:29:33.364Z,11.40
2018-12-14T14:32:00.906Z,9.40
2018-12-14T14:34:28.518Z,9.90
2018-12-14T14:36:55.978Z,10.47
2018-12-14T14:39:23.481Z,10.25
2018-12-14T14:41:51.981Z,11.30
2018-12-14T14:44:19.426Z,10.70
2018-12-14T14:46:47.013Z,12.53
2018-12-14T14:49:14.530Z,10.80
2018-12-14T14:51:42.360Z,11.47
2018-12-14T14:54:09.885Z,11.90
2018-12-14T14:56:40.301Z,11.57
2018-12-14T14:59:08.457Z,12.40
2018-12-14T15:01:35.932Z,12.70
2018-12-14T15:04:03.478Z,11.70
2018-12-14T15:06:30.925Z,12.53
2018-12-14T15:09:02.865Z,11.97
2018-12-14T15:11:30.390Z,11.70
2018-12-14T15:13:57.861Z,12.83
2018-12-14T15:16:29.607Z,11.77
2018-12-14T15:18:57.079Z,13.37
2018-12-14T15:21:24.613Z,13.87
2018-12-14T15:23:56.184Z,14.45
2018-12-14T15:26:23.761Z,13.53
2018-12-14T15:28:51.283Z,11.83
2018-12-14T15:33:50.756Z,11.68
2018-12-14T15:36:19.204Z,12.60
2018-12-14T15:38:46.700Z,12.30
2018-12-14T15:41:14.197Z,12.57
2018-12-14T15:43:41.698Z,11.97
2018-12-14T15:46:09.194Z,10.53
2018-12-14T15:48:37.183Z,14.00
2018-12-14T15:51:04.660Z,13.17
2018-12-14T15:53:32.341Z,12.73
2018-12-14T15:55:59.801Z,12.43
2018-12-14T15:58:27.379Z,12.13
2018-12-14T16:00:54.852Z,10.80
2018-12-14T16:03:22.329Z,10.63
2018-12-14T16:05:49.778Z,11.50
2018-12-14T16:08:17.320Z,10.43
2018-12-14T16:10:44.784Z,11.90
2018-12-14T16:13:12.289Z,9.33
2018-12-14T16:15:39.895Z,9.80
2018-12-14T16:18:07.520Z,9.83
2018-12-14T16:20:35.049Z,10.60
2018-12-14T16:23:02.591Z,8.90
2018-12-14T16:25:30.139Z,12.43
2018-12-14T16:27:57.705Z,10.20
2018-12-14T16:30:25.148Z,11.10
2018-12-14T16:32:52.676Z,12.00
2018-12-14T16:35:20.136Z,10.78
2018-12-14T16:37:47.587Z,9.37
2018-12-14T16:40:15.151Z,10.27
2018-12-14T16:42:42.583Z,9.57
2018-12-14T16:45:10.049Z,10.37
2018-12-14T16:47:37.493Z,9.60
2018-12-14T16:50:05.707Z,9.60
2018-12-14T16:52:33.188Z,9.40
2018-12-14T16:55:00.884Z,10.20
2018-12-14T16:57:28.370Z,9.37
2018-12-14T16:59:55.856Z,10.18
2018-12-14T17:02:23.413Z,8.77
2018-12-14T17:04:51.808Z,10.57
2018-12-14T17:07:19.674Z,10.30
2018-12-14T17:09:47.210Z,10.27
2018-12-14T17:12:14.645Z,9.37
2018-12-14T17:14:42.108Z,8.63
2018-12-14T17:17:09.626Z,10.50
2018-12-14T17:19:37.244Z,8.57
2018-12-14T17:22:04.691Z,8.97
2018-12-14T17:24:32.390Z,8.45
2018-12-14T17:27:00.004Z,10.53
2018-12-14T17:29:27.451Z,13.83
2018-12-14T17:31:54.995Z,9.20
2018-12-14T17:34:22.443Z,9.17
2018-12-14T17:36:49.936Z,10.07
2018-12-14T17:39:17.398Z,7.97
2018-12-14T17:41:44.965Z,8.53
2018-12-14T17:44:12.427Z,8.77
2018-12-14T17:46:40.137Z,8.07
2018-12-14T17:49:07.659Z,8.07
2018-12-14T17:51:35.184Z,9.97
2018-12-14T17:54:02.655Z,10.10
2018-12-14T17:56:30.098Z,9.53
2018-12-14T17:58:57.569Z,8.87
2018-12-14T18:01:25.023Z,11.07
2018-12-14T18:03:53.978Z,10.20
2018-12-14T18:06:21.470Z,9.00
2018-12-14T18:08:49.018Z,9.88
2018-12-14T18:11:16.500Z,9.00
2018-12-14T18:13:44.029Z,9.97
2018-12-14T18:16:11.597Z,10.57
2018-12-14T18:18:39.083Z,8.90
2018-12-14T18:21:08.841Z,10.03
2018-12-14T18:23:36.566Z,9.83
2018-12-14T18:26:04.107Z,8.80
2018-12-14T18:28:31.557Z,8.03
2018-12-14T18:30:59.004Z,9.60
2018-12-14T18:33:26.463Z,8.67
2018-12-14T18:35:53.993Z,9.13
2018-12-14T18:38:23.336Z,9.13
2018-12-14T18:40:50.797Z,8.93
2018-12-14T18:43:18.276Z,9.37
2018-12-14T18:45:45.704Z,9.07
2018-12-14T18:48:13.188Z,7.73
2018-12-14T18:50:40.624Z,8.13
2018-12-14T18:53:08.090Z,10.27
2018-12-14T18:55:36.359Z,9.25
2018-12-14T18:58:03.799Z,9.03
2018-12-14T19:00:31.441Z,9.90
2018-12-14T19:02:58.904Z,9.50
2018-12-14T19:05:26.398Z,10.03
2018-12-14T19:07:53.873Z,8.20
2018-12-14T19:10:21.330Z,10.90
2018-12-14T19:12:48.883Z,8.70
2018-12-14T19:15:16.538Z,9.40
2018-12-14T19:17:44.006Z,7.60
2018-12-14T19:20:11.550Z,9.63
2018-12-14T19:22:39.010Z,8.10
2018-12-14T19:25:06.545Z,9.13
2018-12-14T19:27:33.980Z,9.03
2018-12-14T19:30:01.488Z,8.70
2018-12-14T19:32:28.942Z,8.93
2018-12-14T19:34:56.434Z,9.30
2018-12-14T19:37:23.983Z,9.70
2018-12-14T19:39:51.514Z,9.30
2018-12-14T19:42:19.034Z,7.25
2018-12-14T19:44:46.533Z,9.30
2018-12-14T19:47:13.988Z,8.20
2018-12-14T19:49:41.786Z,8.85
2018-12-14T19:52:09.974Z,9.67
2018-12-14T19:54:37.593Z,8.07
2018-12-14T19:57:05.079Z,7.50
2018-12-14T19:59:32.577Z,7.70
2018-12-14T20:02:00.659Z,7.80
2018-12-14T20:04:28.244Z,7.40
2018-12-14T20:06:55.796Z,6.97
2018-12-14T20:09:23.306Z,9.33
2018-12-14T20:11:52.342Z,8.40
2018-12-14T20:14:22.259Z,7.62
2018-12-14T20:16:50.639Z,7.97
2018-12-14T20:19:18.161Z,7.50
2018-12-14T20:21:45.632Z,7.67
2018-12-14T20:24:13.111Z,7.80
2018-12-14T20:26:40.687Z,8.13
2018-12-14T20:29:08.136Z,7.27
2018-12-14T20:31:35.779Z,9.67
2018-12-14T20:34:03.308Z,8.00
2018-12-14T20:36:30.745Z,7.80
2018-12-14T20:38:58.208Z,7.00
2018-12-14T20:41:25.688Z,8.30
2018-12-14T20:43:53.166Z,7.90
2018-12-14T20:46:20.612Z,8.10
2018-12-14T20:48:48.159Z,6.90
2018-12-14T20:51:15.639Z,8.43
2018-12-14T20:53:43.125Z,8.23
2018-12-14T20:56:11.562Z,8.40
2018-12-14T20:58:39.040Z,8.30
2018-12-14T21:01:06.634Z,7.63
2018-12-14T21:03:34.102Z,8.93
2018-12-14T21:06:02.940Z,6.60
2018-12-14T21:08:32.206Z,7.50
2018-12-14T21:10:59.648Z,7.33
2018-12-14T21:13:27.128Z,7.50
2018-12-14T21:15:54.555Z,7.80
2018-12-14T21:18:22.031Z,6.90
2018-12-14T21:20:49.575Z,7.30
2018-12-14T21:23:17.044Z,7.13
2018-12-14T21:25:44.828Z,7.30
2018-12-14T21:28:12.469Z,8.60
2018-12-14T21:30:39.962Z,9.13
2018-12-14T21:33:07.404Z,9.87
2018-12-14T21:35:35.490Z,9.70
2018-12-14T21:38:02.998Z,9.00
2018-12-14T21:40:30.547Z,10.17
2018-12-14T21:42:57.994Z,8.15
2018-12-14T21:45:25.524Z,8.33
2018-12-14T21:47:52.999Z,9.23
2018-12-14T21:50:20.458Z,10.82
2018-12-14T21:52:47.938Z,8.33
2018-12-14T21:55:15.735Z,8.37
2018-12-14T21:57:43.192Z,9.60
2018-12-14T22:00:11.786Z,9.47
2018-12-14T22:02:39.314Z,10.53
2018-12-14T22:05:07.528Z,9.68
2018-12-14T22:07:35.037Z,8.33
2018-12-14T22:10:02.791Z,7.70
2018-12-14T22:12:30.260Z,9.57
2018-12-14T22:14:57.720Z,9.83
2018-12-14T22:17:25.172Z,10.30
2018-12-14T22:19:53.546Z,11.60
2018-12-14T22:22:21.000Z,11.70
2018-12-14T22:24:48.455Z,11.27
2018-12-14T22:27:15.933Z,10.60
2018-12-14T22:29:43.412Z,11.23
2018-12-14T22:32:10.893Z,11.30
2018-12-14T22:34:38.459Z,10.63
2018-12-14T22:37:06.009Z,10.20
2018-12-14T22:39:33.821Z,9.13
2018-12-14T22:42:01.351Z,9.50
2018-12-14T22:44:28.847Z,10.80
2018-12-14T22:46:56.315Z,10.97
2018-12-14T22:49:24.712Z,11.50
2018-12-14T22:51:52.279Z,11.70
2018-12-14T22:54:19.715Z,12.07
2018-12-14T22:56:48.281Z,10.60
2018-12-14T22:59:15.739Z,10.50
2018-12-14T23:01:43.258Z,9.10
2018-12-14T23:04:10.714Z,10.30
2018-12-14T23:06:38.401Z,10.90
2018-12-14T23:09:06.937Z,10.47
2018-12-14T23:11:35.249Z,9.43
2018-12-14T23:14:02.870Z,12.40
2018-12-14T23:16:30.423Z,12.17
2018-12-14T23:18:57.907Z,11.90
2018-12-14T23:21:25.671Z,12.77
2018-12-14T23:23:53.213Z,12.47
2018-12-14T23:26:20.710Z,11.90
2018-12-14T23:28:48.449Z,11.57
2018-12-14T23:31:15.921Z,13.53
2018-12-14T23:33:43.387Z,12.30
2018-12-14T23:36:10.930Z,13.17
2018-12-14T23:38:38.479Z,13.38
2018-12-14T23:41:05.932Z,13.07
2018-12-14T23:43:33.399Z,11.17
2018-12-14T23:46:00.886Z,11.05
2018-12-14T23:48:28.331Z,11.13
2018-12-14T23:50:56.596Z,12.10
2018-12-14T23:53:24.047Z,11.10
2018-12-14T23:55:51.512Z,11.37
2018-12-14T23:58:18.981Z,11.37
